Time;durP1;ratioP1;P1;durP2;ratioP2;P2;SDS_P1;SDS_P2;PMS_P1;PMS_P2;Temp;Humidity;BMP_temperature;BMP_pressure;BME280_temperature;BME280_humidity;BME280_pressure;Samples;Min_cycle;Max_cycle;Signal;HPM_P1;HPM_P2
2021/09/13 00:00:21;;;;;;;22.00;8.08;;;;;;;14.40;72.10;99917.48;1772083;81;21269;-76
2021/09/13 00:03:26;;;;;;;25.60;9.63;;;;;;;14.39;70.76;99914.39;1772034;81;21154;-76
2021/09/13 00:06:33;;;;;;;28.20;9.68;;;;;;;14.36;70.43;99916.73;1772065;81;21692;-76
2021/09/13 00:09:39;;;;;;;18.82;10.00;;;;;;;14.30;70.34;99919.78;1780440;80;21150;-76
2021/09/13 00:12:45;;;;;;;46.58;10.45;;;;;;;14.17;70.14;99919.79;1780380;80;21299;-76
2021/09/13 00:15:51;;;;;;;34.67;10.80;;;;;;;14.04;70.76;99923.35;1778716;80;21184;-76
2021/09/13 00:18:57;;;;;;;26.02;11.25;;;;;;;13.95;71.56;99926.81;1778632;80;21212;-76
2021/09/13 00:22:02;;;;;;;27.42;10.25;;;;;;;13.90;70.65;99923.84;1778817;80;21177;-77
2021/09/13 00:25:09;;;;;;;35.35;8.30;;;;;;;13.83;69.79;99928.46;1778869;80;21753;-76
2021/09/13 00:28:16;;;;;;;25.80;8.88;;;;;;;13.76;69.60;99937.23;1780166;80;21264;-76
2021/09/13 00:31:21;;;;;;;23.18;8.55;;;;;;;13.66;69.75;99932.13;1780097;80;21188;-77
2021/09/13 00:34:28;;;;;;;30.00;8.43;;;;;;;13.57;70.16;99936.09;1778951;80;21698;-77
2021/09/13 00:37:34;;;;;;;28.10;9.03;;;;;;;13.51;70.53;99932.80;1779464;80;21320;-77
2021/09/13 00:40:41;;;;;;;26.07;8.95;;;;;;;13.43;70.79;99932.44;1780311;80;21780;-76
2021/09/13 00:43:48;;;;;;;31.80;8.18;;;;;;;13.40;71.25;99933.36;1778940;80;21165;-77
2021/09/13 00:46:53;;;;;;;19.67;7.55;;;;;;;13.38;71.45;99929.98;1779633;80;21276;-76
2021/09/13 00:49:59;;;;;;;24.20;7.40;;;;;;;13.35;71.68;99932.60;1780418;80;21789;-76
2021/09/13 00:53:04;;;;;;;21.45;7.70;;;;;;;13.37;73.09;99931.05;1780426;80;21299;-76
2021/09/13 00:56:13;;;;;;;31.90;8.80;;;;;;;13.38;74.12;99937.70;1779161;80;21276;-77
2021/09/13 00:59:19;;;;;;;23.45;9.08;;;;;;;13.41;74.76;99935.93;1778724;80;21169;-76
2021/09/13 01:02:25;;;;;;;25.37;7.78;;;;;;;13.45;75.08;99941.31;1779013;80;21145;-76
2021/09/13 01:05:32;;;;;;;39.08;8.25;;;;;;;13.50;75.30;99934.70;1778836;80;21157;-76
2021/09/13 01:08:36;;;;;;;25.17;8.43;;;;;;;13.57;75.34;99940.22;1761200;81;21300;-76
2021/09/13 01:11:43;;;;;;;24.70;7.80;;;;;;;13.60;74.85;99930.20;1771609;81;21292;-76
2021/09/13 01:14:49;;;;;;;30.88;9.20;;;;;;;13.61;73.69;99937.91;1770596;81;21216;-76
2021/09/13 01:17:55;;;;;;;25.97;8.38;;;;;;;13.55;73.23;99929.44;1770610;81;21213;-77
2021/09/13 01:21:00;;;;;;;19.55;8.03;;;;;;;13.54;73.52;99933.22;1772046;81;21822;-77
2021/09/13 01:24:09;;;;;;;28.55;8.33;;;;;;;13.52;73.06;99929.00;1771922;81;21154;-77
2021/09/13 01:27:16;;;;;;;25.30;8.55;;;;;;;13.45;72.81;99930.32;1771314;81;21362;-77
2021/09/13 01:30:22;;;;;;;26.55;8.20;;;;;;;13.35;72.82;99924.89;1770529;81;21209;-77
2021/09/13 01:33:29;;;;;;;30.85;9.70;;;;;;;13.22;73.03;99932.52;1771401;81;21304;-76
2021/09/13 01:36:37;;;;;;;25.43;8.60;;;;;;;13.17;74.51;99931.73;1771671;81;21187;-77
2021/09/13 01:39:42;;;;;;;27.67;8.28;;;;;;;13.18;74.19;99929.86;1771937;81;21257;-76
2021/09/13 01:42:48;;;;;;;19.45;7.53;;;;;;;13.16;74.78;99925.08;1770849;81;21332;-76
2021/09/13 01:45:54;;;;;;;25.97;8.53;;;;;;;13.15;74.31;99925.60;1772202;81;21281;-76
2021/09/13 01:49:02;;;;;;;24.10;8.68;;;;;;;13.13;75.00;99928.24;1771951;81;21319;-76
2021/09/13 01:52:09;;;;;;;25.23;10.43;;;;;;;13.12;76.87;99924.63;1760364;81;21869;-76
2021/09/13 01:55:14;;;;;;;27.90;10.32;;;;;;;13.13;77.71;99930.99;1771970;81;21315;-76
2021/09/13 01:58:21;;;;;;;29.40;10.35;;;;;;;13.15;79.00;99925.60;1771074;81;21318;-76
2021/09/13 02:01:26;;;;;;;28.70;11.00;;;;;;;13.20;79.85;99924.99;1771763;81;21233;-76
2021/09/13 02:04:32;;;;;;;29.67;10.65;;;;;;;13.23;80.01;99921.89;1770995;81;21308;-76
2021/09/13 02:07:38;;;;;;;32.25;10.85;;;;;;;13.27;79.39;99917.69;1770984;81;21825;-76
2021/09/13 02:10:43;;;;;;;30.25;9.78;;;;;;;13.30;78.68;99917.26;1771584;80;21324;-76
2021/09/13 02:13:50;;;;;;;35.45;10.50;;;;;;;13.31;78.27;99914.83;1771983;81;21252;-77
2021/09/13 02:16:57;;;;;;;36.48;10.55;;;;;;;13.31;78.45;99916.20;1770487;80;21220;-76
2021/09/13 02:20:03;;;;;;;33.58;11.70;;;;;;;13.31;78.35;99916.20;1770653;81;21241;-77
2021/09/13 02:23:08;;;;;;;41.23;13.13;;;;;;;13.32;78.52;99915.17;1770650;81;21602;-77
2021/09/13 02:26:15;;;;;;;38.70;11.10;;;;;;;13.34;79.00;99903.45;1770545;81;21181;-76
2021/09/13 02:29:20;;;;;;;36.28;10.28;;;;;;;13.36;79.01;99905.98;1770716;81;21248;-77
2021/09/13 02:32:26;;;;;;;30.57;10.50;;;;;;;13.35;78.32;99905.13;1771299;81;21905;-76
2021/09/13 02:35:31;;;;;;;25.88;10.45;;;;;;;13.33;77.01;99904.50;1771787;81;21924;-75
2021/09/13 02:38:39;;;;;;;27.48;11.55;;;;;;;13.32;77.49;99900.06;1770611;80;21189;-76
2021/09/13 02:41:45;;;;;;;28.25;10.82;;;;;;;13.29;77.36;99902.68;1771607;81;21311;-77
2021/09/13 02:44:50;;;;;;;34.75;10.38;;;;;;;13.20;77.21;99895.63;1771979;81;21189;-76
2021/09/13 02:47:55;;;;;;;48.55;15.38;;;;;;;13.13;76.98;99891.17;1770749;81;21300;-76
2021/09/13 02:51:00;;;;;;;46.28;13.32;;;;;;;13.08;78.39;99903.27;1771969;81;21268;-77
2021/09/13 02:54:07;;;;;;;41.88;15.08;;;;;;;13.09;80.28;99906.36;1772094;81;21256;-76
2021/09/13 02:57:12;;;;;;;44.75;16.45;;;;;;;13.07;79.63;99902.41;1770536;81;21299;-76
2021/09/13 03:00:20;;;;;;;50.73;16.12;;;;;;;13.09;80.97;99899.48;1772017;81;21786;-76
2021/09/13 03:03:27;;;;;;;48.85;17.42;;;;;;;13.08;80.84;99905.52;1772138;81;21197;-77
2021/09/13 03:06:33;;;;;;;35.80;13.85;;;;;;;13.09;81.90;99904.98;1771585;81;21315;-76
2021/09/13 03:09:38;;;;;;;47.58;15.53;;;;;;;13.09;82.29;99898.96;1770907;81;21829;-76
2021/09/13 03:12:44;;;;;;;44.93;15.25;;;;;;;13.07;81.53;99907.06;1784450;80;21192;-77
2021/09/13 03:15:44;;;;;;;34.63;13.40;;;;;;;13.02;80.74;99910.41;1784246;79;21160;-76
2021/09/13 03:18:50;;;;;;;42.45;14.65;;;;;;;12.95;79.77;99917.25;1785422;80;21181;-76
2021/09/13 03:21:54;;;;;;;39.73;15.55;;;;;;;12.90;79.68;99914.27;1784992;80;21327;-77
2021/09/13 03:25:00;;;;;;;43.78;15.53;;;;;;;12.92;80.25;99922.28;1786390;80;21179;-77
2021/09/13 03:28:05;;;;;;;57.43;17.12;;;;;;;12.95;81.17;99916.41;1781673;80;21297;-76
2021/09/13 03:31:11;;;;;;;39.10;14.75;;;;;;;13.00;81.90;99907.88;1701091;84;21390;-76
2021/09/13 03:34:15;;;;;;;42.83;15.45;;;;;;;13.09;83.49;99915.97;1729993;83;21266;-76
2021/09/13 03:37:20;;;;;;;44.38;16.17;;;;;;;13.13;82.32;99914.52;1729970;83;21326;-77
2021/09/13 03:40:27;;;;;;;52.17;14.60;;;;;;;13.15;81.27;99913.77;1730028;83;21208;-77
2021/09/13 03:43:33;;;;;;;46.28;14.05;;;;;;;13.19;81.06;99913.70;1720308;83;21220;-77
2021/09/13 03:46:39;;;;;;;45.63;14.90;;;;;;;13.20;80.00;99915.38;1700353;84;21370;-76
2021/09/13 03:49:46;;;;;;;47.35;14.95;;;;;;;13.20;79.94;99916.75;1722735;83;21211;-76
2021/09/13 03:52:53;;;;;;;39.53;14.80;;;;;;;13.21;79.52;99919.81;1728013;83;21319;-76
2021/09/13 03:55:59;;;;;;;48.00;15.32;;;;;;;13.25;80.18;99912.91;1728601;83;21220;-76
2021/09/13 03:59:05;;;;;;;47.35;16.42;;;;;;;13.32;79.77;99917.08;1729796;83;21899;-76
2021/09/13 04:02:13;;;;;;;37.08;14.50;;;;;;;13.37;79.66;99923.65;1729155;83;21785;-77
2021/09/13 04:05:21;;;;;;;45.58;14.78;;;;;;;13.48;80.95;99929.08;1729956;82;21821;-76
2021/09/13 04:08:58;;;;;;;50.90;13.80;;;;;;;13.59;80.75;99930.39;1725836;83;21200;-77
2021/09/13 04:11:57;;;;;;;47.48;15.05;;;;;;;13.73;80.53;99932.13;1699847;83;21212;-77
2021/09/13 04:15:20;;;;;;;49.75;13.25;;;;;;;13.88;80.30;99934.21;1640969;87;21833;-77
2021/09/13 04:18:26;;;;;;;39.70;13.55;;;;;;;14.06;80.41;99931.69;1703262;84;21300;-76
2021/09/13 04:21:38;;;;;;;40.65;15.08;;;;;;;14.23;79.58;99935.45;1699087;84;21268;-76
2021/09/13 04:25:05;;;;;;;47.27;16.05;;;;;;;14.35;79.10;99929.66;1702406;83;21323;-76
2021/09/13 04:28:27;;;;;;;49.15;15.20;;;;;;;14.51;78.75;99937.52;1706082;83;21319;-77
2021/09/13 04:31:40;;;;;;;33.00;13.60;;;;;;;14.69;78.98;99930.54;1713316;83;21287;-76
2021/09/13 04:35:02;;;;;;;28.17;11.22;;;;;;;14.87;79.42;99936.25;1679118;84;21396;-76
2021/09/13 04:38:12;;;;;;;32.83;12.00;;;;;;;15.08;78.86;99940.66;1761846;80;21260;-76
2021/09/13 04:41:22;;;;;;;35.58;11.05;;;;;;;15.27;78.01;99941.67;1760615;80;21318;-76
2021/09/13 04:44:34;;;;;;;33.53;12.07;;;;;;;15.42;77.41;99934.52;1745050;80;21247;-77
2021/09/13 04:47:41;;;;;;;37.88;11.08;;;;;;;15.60;76.82;99938.81;1744487;80;21177;-77
2021/09/13 04:51:00;;;;;;;31.90;9.33;;;;;;;15.81;76.25;99944.60;1752532;80;21295;-76
2021/09/13 04:54:08;;;;;;;31.55;9.43;;;;;;;16.02;75.25;99948.94;1741423;82;21262;-77
2021/09/13 04:57:13;;;;;;;25.50;8.40;;;;;;;16.17;73.34;99948.63;1744243;82;21232;-78
2021/09/13 05:00:21;;;;;;;28.65;8.78;;;;;;;16.28;71.81;99943.81;1753274;80;21853;-77
2021/09/13 05:03:27;;;;;;;27.07;9.03;;;;;;;16.41;70.52;99938.70;1741146;80;21213;-79
2021/09/13 05:06:32;;;;;;;23.40;7.58;;;;;;;16.55;69.65;99932.86;1741593;80;21301;-76
2021/09/13 05:09:38;;;;;;;22.10;8.25;;;;;;;16.73;68.91;99934.88;1740698;80;21516;-77
2021/09/13 05:12:44;;;;;;;35.45;8.30;;;;;;;16.92;67.93;99927.48;1747877;79;21817;-77
2021/09/13 05:15:50;;;;;;;27.85;7.95;;;;;;;17.14;66.64;99931.21;1760918;79;21287;-78
2021/09/13 05:18:57;;;;;;;21.52;7.37;;;;;;;17.36;65.36;99926.40;1760150;79;21307;-77
2021/09/13 05:22:03;;;;;;;24.35;7.17;;;;;;;17.59;64.32;99924.29;1758847;79;21236;-77
2021/09/13 05:25:08;;;;;;;28.98;7.95;;;;;;;17.81;63.31;99921.93;1761183;79;22261;-77
2021/09/13 05:28:14;;;;;;;22.52;6.97;;;;;;;18.04;61.72;99925.34;1755671;79;21692;-77
2021/09/13 05:31:24;;;;;;;26.52;6.53;;;;;;;18.22;60.15;99926.38;1755210;79;21207;-76
2021/09/13 05:34:31;;;;;;;28.95;6.92;;;;;;;18.36;58.10;99923.72;1760830;80;21295;-76
2021/09/13 05:37:36;;;;;;;15.95;5.37;;;;;;;18.49;57.65;99922.13;1693011;82;21563;-78
2021/09/13 05:40:55;;;;;;;18.00;5.58;;;;;;;18.64;56.16;99932.20;1739485;79;21303;-76
2021/09/13 05:44:00;;;;;;;21.93;6.08;;;;;;;18.80;55.04;99929.84;1762612;79;21303;-78
2021/09/13 05:47:09;;;;;;;18.90;5.17;;;;;;;18.92;54.27;99927.09;1759601;79;22102;-77
2021/09/13 05:50:16;;;;;;;18.00;5.97;;;;;;;19.04;52.92;99930.69;1700233;83;21678;-77
2021/09/13 05:53:22;;;;;;;17.10;4.65;;;;;;;19.18;52.18;99932.68;1759541;79;21267;-78
2021/09/13 05:56:28;;;;;;;18.12;5.10;;;;;;;19.28;52.61;99930.98;1758668;79;21803;-77
2021/09/13 05:59:33;;;;;;;23.75;4.90;;;;;;;19.44;52.43;99932.73;1754864;80;21529;-78
2021/09/13 06:02:39;;;;;;;13.43;5.30;;;;;;;19.56;52.29;99931.59;1683015;82;21310;-79
2021/09/13 06:05:49;;;;;;;17.17;5.67;;;;;;;19.66;51.91;99933.23;1743209;80;21899;-78
2021/09/13 06:08:55;;;;;;;16.02;5.03;;;;;;;19.80;51.73;99938.51;1756833;80;21291;-79
2021/09/13 06:12:01;;;;;;;15.43;5.62;;;;;;;19.91;52.04;99934.33;1718313;82;21880;-78
2021/09/13 06:15:08;;;;;;;18.10;4.70;;;;;;;20.06;51.74;99939.33;1693623;83;21294;-78
2021/09/13 06:18:14;;;;;;;19.30;4.28;;;;;;;20.23;50.53;99939.91;1756378;80;21192;-78
2021/09/13 06:21:20;;;;;;;19.30;4.50;;;;;;;20.34;49.46;99937.64;1701079;82;21302;-82
2021/09/13 06:24:26;;;;;;;24.40;4.78;;;;;;;20.44;48.50;99941.98;1758810;80;21291;-83
2021/09/13 06:27:33;;;;;;;12.95;4.08;;;;;;;20.56;47.61;99940.55;1760660;80;21629;-82
2021/09/13 06:30:40;;;;;;;13.43;3.92;;;;;;;20.66;47.63;99926.86;1760129;80;21180;-81
2021/09/13 06:33:47;;;;;;;25.80;4.37;;;;;;;20.75;46.03;99932.81;1693066;83;21235;-80
2021/09/13 06:36:51;;;;;;;15.72;3.60;;;;;;;20.88;46.40;99931.09;1697262;83;21342;-80
2021/09/13 06:40:01;;;;;;;13.22;4.12;;;;;;;21.02;43.92;99928.81;1696546;83;21683;-81
2021/09/13 06:43:04;;;;;;;29.60;5.37;;;;;;;21.13;43.67;99932.91;1754305;79;21327;-80
2021/09/13 06:46:23;;;;;;;23.07;4.25;;;;;;;21.27;44.22;99930.61;1756951;79;21322;-80
2021/09/13 06:49:28;;;;;;;16.50;3.67;;;;;;;21.38;43.36;99930.23;1755824;79;21268;-83
2021/09/13 06:52:34;;;;;;;22.62;3.50;;;;;;;21.48;42.50;99937.32;1758647;79;21723;-84
2021/09/13 06:55:45;;;;;;;14.33;3.08;;;;;;;21.58;42.28;99931.89;1761720;80;21161;-84
2021/09/13 06:58:52;;;;;;;18.15;3.52;;;;;;;21.66;41.78;99934.79;1758976;79;21319;-81
2021/09/13 07:01:57;;;;;;;14.68;2.77;;;;;;;21.70;41.95;99931.78;1761189;80;21290;-81
2021/09/13 07:05:04;;;;;;;18.42;4.25;;;;;;;21.81;41.92;99936.92;1705731;82;21287;-78
2021/09/13 07:08:10;;;;;;;11.85;3.30;;;;;;;21.97;40.93;99939.33;1690898;84;22026;-78
2021/09/13 07:11:17;;;;;;;15.45;2.90;;;;;;;22.08;40.08;99932.80;1696265;84;21359;-77
2021/09/13 07:14:26;;;;;;;11.97;2.50;;;;;;;22.10;40.03;99938.94;1724176;82;21343;-78
2021/09/13 07:17:31;;;;;;;13.83;2.77;;;;;;;22.12;40.49;99934.83;1708833;83;21920;-77
2021/09/13 07:20:36;;;;;;;14.05;2.50;;;;;;;22.17;40.95;99927.92;1713012;83;21634;-78
2021/09/13 07:23:43;;;;;;;11.08;2.80;;;;;;;22.23;41.31;99931.59;1712587;83;21323;-78
2021/09/13 07:27:05;;;;;;;18.30;3.37;;;;;;;22.27;41.02;99931.92;1716448;83;22171;-84
2021/09/13 07:30:19;;;;;;;11.15;2.75;;;;;;;22.25;41.31;99940.52;1719681;82;21758;-84
2021/09/13 07:33:36;;;;;;;18.20;3.58;;;;;;;22.31;41.02;99935.87;1707892;82;21203;-77
2021/09/13 07:36:41;;;;;;;16.93;4.03;;;;;;;22.35;40.69;99941.20;1706295;82;21319;-77
2021/09/13 07:39:45;;;;;;;16.77;3.77;;;;;;;22.38;40.35;99936.48;1711501;82;21323;-77
2021/09/13 07:42:50;;;;;;;14.43;3.30;;;;;;;22.39;40.67;99927.02;1712899;82;21358;-78
2021/09/13 07:45:55;;;;;;;19.82;3.33;;;;;;;22.42;40.63;99926.50;1714127;83;21290;-78
2021/09/13 07:49:02;;;;;;;12.50;3.87;;;;;;;22.46;40.69;99920.69;1709617;82;21307;-78
2021/09/13 07:52:08;;;;;;;11.30;3.30;;;;;;;22.52;40.59;99929.38;1709027;83;21653;-78
2021/09/13 07:55:14;;;;;;;16.85;3.80;;;;;;;22.57;40.41;99924.41;1707265;82;21258;-78
2021/09/13 07:58:21;;;;;;;15.10;2.87;;;;;;;22.63;40.59;99925.59;1706041;82;21183;-78
2021/09/13 08:01:26;;;;;;;18.77;4.20;;;;;;;22.74;39.62;99925.68;1706549;83;21303;-78
2021/09/13 08:04:31;;;;;;;11.65;3.75;;;;;;;22.79;40.14;99928.52;1712668;83;21192;-78
2021/09/13 08:07:36;;;;;;;21.40;4.10;;;;;;;22.83;40.07;99926.32;1717440;82;21589;-78
2021/09/13 08:10:41;;;;;;;9.33;3.30;;;;;;;22.90;39.98;99927.50;1713696;83;21443;-78
2021/09/13 08:13:48;;;;;;;16.23;3.90;;;;;;;22.87;39.88;99923.28;1714673;83;21291;-78
2021/09/13 08:16:53;;;;;;;21.85;3.95;;;;;;;22.91;40.35;99918.89;1711364;82;21181;-78
2021/09/13 08:19:59;;;;;;;11.55;2.70;;;;;;;23.01;40.15;99918.66;1714500;82;21885;-82
2021/09/13 08:23:07;;;;;;;15.72;3.55;;;;;;;23.11;40.13;99915.41;1712629;82;21302;-78
2021/09/13 08:26:16;;;;;;;26.05;5.65;;;;;;;23.18;39.02;99913.77;1710913;82;21247;-77
2021/09/13 08:29:23;;;;;;;20.77;4.33;;;;;;;23.25;39.29;99908.80;1683934;83;21180;-77
2021/09/13 08:32:30;;;;;;;14.23;3.25;;;;;;;23.33;38.90;99905.48;1712938;82;21303;-76
2021/09/13 08:35:35;;;;;;;13.58;2.85;;;;;;;23.36;38.42;99903.55;1715435;82;21251;-78
2021/09/13 08:38:40;;;;;;;12.60;2.92;;;;;;;23.35;38.78;99903.84;1705273;82;22268;-77
2021/09/13 08:41:45;;;;;;;17.67;3.67;;;;;;;23.36;38.71;99902.72;1707067;82;22035;-82
2021/09/13 08:44:52;;;;;;;27.20;3.87;;;;;;;23.38;38.81;99906.06;1708896;82;21249;-80
2021/09/13 08:48:44;;;;;;;20.05;3.80;;;;;;;23.41;38.90;99904.14;1709728;82;21179;-81
2021/09/13 08:51:29;;;;;;;13.60;3.58;;;;;;;23.52;38.81;99913.40;1685243;82;21235;-81
2021/09/13 08:54:30;;;;;;;18.92;3.83;;;;;;;23.60;38.76;99906.75;1646875;85;21213;-82
2021/09/13 08:57:37;;;;;;;21.73;4.03;;;;;;;23.67;38.34;99903.20;1680211;83;22027;-81
2021/09/13 09:00:41;;;;;;;18.25;4.17;;;;;;;23.70;38.44;99892.02;1684382;83;21699;-82
2021/09/13 09:03:49;;;;;;;18.30;4.22;;;;;;;23.76;38.36;99891.48;1682347;83;21360;-81
2021/09/13 09:06:54;;;;;;;13.80;3.42;;;;;;;23.83;38.27;99893.48;1659370;84;21221;-83
2021/09/13 09:10:25;;;;;;;15.05;3.47;;;;;;;23.89;37.94;99895.16;1654879;84;21247;-83
2021/09/13 09:13:30;;;;;;;17.15;3.77;;;;;;;23.93;37.44;99886.52;1680659;83;21736;-82
2021/09/13 09:16:35;;;;;;;15.88;3.90;;;;;;;23.88;37.71;99887.91;1681526;83;21206;-82
2021/09/13 09:19:43;;;;;;;12.95;3.20;;;;;;;23.85;37.69;99891.23;1698521;82;21299;-82
2021/09/13 09:22:50;;;;;;;18.00;3.72;;;;;;;23.85;37.31;99885.66;1672587;84;21573;-82
2021/09/13 09:25:56;;;;;;;14.50;3.35;;;;;;;23.83;37.31;99883.14;1700002;82;21323;-80
2021/09/13 09:29:02;;;;;;;16.07;3.47;;;;;;;23.84;37.28;99873.64;1674001;84;21162;-83
2021/09/13 09:32:09;;;;;;;14.15;3.33;;;;;;;23.88;37.18;99879.53;1701292;82;21169;-84
2021/09/13 09:35:23;;;;;;;8.88;3.12;;;;;;;23.91;37.73;99878.98;1698756;83;21343;-85
2021/09/13 09:38:52;;;;;;;9.15;3.15;;;;;;;24.01;36.97;99876.78;1652673;84;21337;-80
2021/09/13 09:42:04;;;;;;;14.55;3.00;;;;;;;24.04;37.17;99872.85;1679085;84;21140;-85
2021/09/13 09:45:25;;;;;;;11.10;3.10;;;;;;;24.09;37.26;99865.05;1691858;82;21637;-83
2021/09/13 09:48:37;;;;;;;15.23;3.45;;;;;;;24.12;37.02;99863.11;1675251;84;21308;-84
2021/09/13 09:51:52;;;;;;;17.23;3.40;;;;;;;24.14;36.75;99871.50;1671741;84;21741;-82
2021/09/13 09:55:00;;;;;;;10.48;2.87;;;;;;;24.22;36.30;99867.31;1695024;82;21271;-84
2021/09/13 09:58:16;;;;;;;11.55;2.83;;;;;;;24.27;36.13;99865.08;1665443;83;21180;-79
2021/09/13 10:01:27;;;;;;;13.28;3.50;;;;;;;24.35;35.24;99872.92;1664358;84;21977;-79
2021/09/13 10:04:37;;;;;;;8.55;2.72;;;;;;;24.37;35.61;99866.52;1670396;84;21865;-78
2021/09/13 10:07:44;;;;;;;;;;;;;;;24.40;34.91;99867.37;1671247;84;21299;-78
2021/09/13 10:10:50;;;;;;;14.40;3.55;;;;;;;24.38;35.62;99866.82;1699292;83;20345;-83
2021/09/13 10:13:55;;;;;;;24.43;3.20;;;;;;;24.41;35.38;99852.27;1649865;84;21900;-85
2021/09/13 10:17:02;;;;;;;14.00;2.40;;;;;;;24.45;35.10;99857.02;1672686;84;21286;-77
2021/09/13 10:20:10;;;;;;;16.65;2.72;;;;;;;24.45;35.30;99845.84;1681129;83;21201;-77
2021/09/13 10:23:15;;;;;;;19.92;3.37;;;;;;;24.49;35.23;99836.34;1682231;83;21586;-72
2021/09/13 10:26:23;;;;;;;14.87;3.25;;;;;;;24.55;35.46;99843.60;1679141;83;21392;-72
2021/09/13 10:29:31;;;;;;;23.20;2.80;;;;;;;24.59;34.94;99832.14;1697962;82;21763;-72
2021/09/13 10:32:41;;;;;;;15.95;3.00;;;;;;;24.63;35.10;99838.86;1697211;82;21575;-71
2021/09/13 10:36:06;;;;;;;13.85;3.17;;;;;;;24.65;35.13;99825.42;1695875;82;21188;-71
2021/09/13 10:39:18;;;;;;;14.33;3.60;;;;;;;24.68;35.29;99832.42;1695111;82;21794;-72
2021/09/13 10:42:41;;;;;;;15.23;3.27;;;;;;;24.74;35.10;99838.28;1694653;82;21584;-72
2021/09/13 10:45:49;;;;;;;14.33;3.15;;;;;;;24.80;33.82;99839.97;1695972;82;21767;-72
2021/09/13 10:48:56;;;;;;;12.13;3.10;;;;;;;24.79;34.25;99833.23;1695699;82;21877;-72
2021/09/13 10:52:37;;;;;;;30.77;4.25;;;;;;;24.81;34.38;99824.86;1658169;82;21638;-72
2021/09/13 10:55:59;;;;;;;15.00;3.22;;;;;;;24.83;34.14;99831.56;1697471;82;21189;-73
2021/09/13 10:59:04;;;;;;;20.02;3.37;;;;;;;24.81;34.28;99833.81;1684337;83;21804;-79
2021/09/13 11:02:16;;;;;;;15.28;3.80;;;;;;;24.84;34.52;99830.44;1684131;83;21331;-78
2021/09/13 11:05:30;;;;;;;16.67;2.65;;;;;;;24.90;34.31;99826.53;1651935;83;21455;-76
2021/09/13 11:08:44;;;;;;;26.82;3.85;;;;;;;24.95;34.19;99829.31;1688633;83;21275;-79
2021/09/13 11:11:55;;;;;;;16.32;3.60;;;;;;;25.01;33.29;99828.17;1694756;83;21758;-82
2021/09/13 11:14:59;;;;;;;12.88;3.45;;;;;;;25.02;33.57;99823.41;1691174;83;21200;-77
2021/09/13 11:18:09;;;;;;;12.53;2.95;;;;;;;25.01;33.66;99828.73;1691369;83;21860;-78
2021/09/13 11:21:29;;;;;;;10.85;3.20;;;;;;;25.00;33.71;99812.52;1732436;81;21184;-83
2021/09/13 11:24:39;;;;;;;15.78;4.78;;;;;;;25.00;33.59;99816.71;1709552;82;22165;-84
2021/09/13 11:27:46;;;;;;;22.22;4.22;;;;;;;24.99;33.09;99813.08;1735257;82;21167;-82
2021/09/13 11:31:07;;;;;;;12.75;3.40;;;;;;;24.96;33.29;99808.61;1733451;82;21723;-83
2021/09/13 11:34:22;;;;;;;20.43;3.52;;;;;;;24.96;33.19;99804.41;1705329;82;21200;-79
2021/09/13 11:37:33;;;;;;;12.93;3.22;;;;;;;24.98;33.00;99812.81;1718426;81;21833;-79
2021/09/13 11:40:39;;;;;;;14.33;3.70;;;;;;;25.00;33.11;99804.13;1714296;82;21386;-81
2021/09/13 11:43:50;;;;;;;19.00;3.70;;;;;;;25.03;32.98;99804.97;1714559;82;21931;-79
2021/09/13 11:47:06;;;;;;;10.80;3.22;;;;;;;25.04;32.74;99796.84;1712794;81;21319;-81
2021/09/13 11:50:18;;;;;;;18.12;3.60;;;;;;;25.04;32.78;99799.64;1712477;81;21639;-81
2021/09/13 11:53:27;;;;;;;17.85;3.47;;;;;;;25.08;32.73;99807.77;1711779;82;21582;-81
2021/09/13 11:56:33;;;;;;;20.52;3.77;;;;;;;25.10;32.87;99794.89;1717531;82;21896;-80
2021/09/13 11:59:39;;;;;;;14.45;3.20;;;;;;;25.09;32.34;99787.63;1712560;82;21436;-78
2021/09/13 12:02:45;;;;;;;15.70;3.75;;;;;;;25.05;32.38;99785.92;1705761;82;21352;-78
2021/09/13 12:05:51;;;;;;;14.75;3.35;;;;;;;25.02;32.80;99784.24;1717748;82;21947;-79
2021/09/13 12:08:57;;;;;;;11.55;3.25;;;;;;;25.05;32.54;99789.28;1714245;82;22205;-79
2021/09/13 12:12:03;;;;;;;13.72;3.02;;;;;;;25.09;32.30;99784.27;1714370;82;21181;-77
2021/09/13 12:15:12;;;;;;;16.87;3.90;;;;;;;25.12;32.38;99785.64;1698733;82;21594;-78
2021/09/13 12:18:19;;;;;;;17.82;3.60;;;;;;;25.15;32.38;99785.08;1714172;83;22111;-79
2021/09/13 12:21:26;;;;;;;13.13;3.42;;;;;;;25.15;32.07;99777.52;1725525;82;21316;-78
2021/09/13 12:24:33;;;;;;;12.47;3.27;;;;;;;25.10;32.33;99773.34;1759122;80;21294;-78
2021/09/13 12:27:38;;;;;;;18.30;4.33;;;;;;;25.10;32.65;99777.54;1754279;81;21447;-78
2021/09/13 12:30:45;;;;;;;9.90;3.30;;;;;;;25.09;32.49;99764.67;1707042;81;21192;-78
2021/09/13 12:33:55;;;;;;;22.82;3.70;;;;;;;25.11;32.20;99761.58;1757891;81;21146;-78
2021/09/13 12:37:12;;;;;;;26.40;5.22;;;;;;;25.11;32.06;99758.22;1697282;84;21210;-78
2021/09/13 12:40:24;;;;;;;12.88;3.10;;;;;;;25.11;31.63;99762.41;1766219;81;21326;-79
2021/09/13 12:43:31;;;;;;;;;;;;;;;25.12;30.96;99766.88;1762429;79;21306;-78
2021/09/13 12:46:37;;;;;;;14.98;3.37;;;;;;;25.14;30.58;99763.83;1766579;80;20270;-78
2021/09/13 12:49:46;;;;;;;12.37;3.62;;;;;;;25.12;30.90;99764.09;1766167;79;21259;-78
2021/09/13 12:52:54;;;;;;;14.43;3.50;;;;;;;25.11;31.13;99755.42;1757613;79;21561;-78
2021/09/13 12:55:59;;;;;;;8.90;3.00;;;;;;;25.08;31.06;99756.55;1760504;81;21295;-78
2021/09/13 12:59:20;;;;;;;11.65;3.02;;;;;;;25.01;31.23;99751.23;1762513;79;21286;-77
2021/09/13 13:02:26;;;;;;;13.75;3.30;;;;;;;25.02;31.22;99755.70;1766512;79;21319;-75
2021/09/13 13:05:56;;;;;;;14.23;3.72;;;;;;;25.03;31.21;99755.14;1759618;79;21263;-76
2021/09/13 13:09:02;;;;;;;13.85;3.45;;;;;;;25.04;31.37;99755.44;1773774;79;21819;-76
2021/09/13 13:12:08;;;;;;;16.95;3.58;;;;;;;25.03;31.76;99753.20;1769688;79;21280;-76
2021/09/13 13:15:16;;;;;;;11.15;2.95;;;;;;;25.00;32.00;99755.16;1763596;79;21200;-76
2021/09/13 13:18:31;;;;;;;18.87;3.95;;;;;;;24.98;31.53;99755.99;1766785;79;21562;-76
2021/09/13 13:21:37;;;;;;;13.53;2.90;;;;;;;24.96;31.34;99761.88;1699141;82;21211;-76
2021/09/13 13:24:45;;;;;;;10.43;3.52;;;;;;;24.96;31.43;99756.29;1677909;83;21288;-76
2021/09/13 13:27:50;;;;;;;14.85;3.70;;;;;;;24.97;31.37;99748.73;1683103;85;21299;-76
2021/09/13 13:30:56;;;;;;;10.35;3.10;;;;;;;24.98;31.62;99755.99;1687435;83;21300;-76
2021/09/13 13:34:01;;;;;;;10.98;3.22;;;;;;;24.97;31.70;99755.16;1702649;83;21312;-76
2021/09/13 13:37:07;;;;;;;12.70;2.92;;;;;;;24.97;31.27;99750.13;1712320;83;21335;-76
2021/09/13 13:40:16;;;;;;;10.23;2.85;;;;;;;25.00;30.74;99750.97;1713151;82;21165;-76
2021/09/13 13:43:21;;;;;;;16.42;3.00;;;;;;;25.00;30.05;99750.97;1711737;83;21331;-80
2021/09/13 13:46:27;;;;;;;12.30;2.60;;;;;;;24.97;30.00;99750.96;1711658;83;21245;-80
2021/09/13 13:49:33;;;;;;;20.60;3.80;;;;;;;24.93;30.35;99747.63;1713639;83;21189;-80
2021/09/13 13:52:40;;;;;;;6.95;2.62;;;;;;;24.90;30.74;99751.84;1713455;83;21229;-80
2021/09/13 13:55:45;;;;;;;15.78;3.15;;;;;;;24.85;30.78;99754.66;1714807;83;21717;-80
2021/09/13 13:58:53;;;;;;;13.30;2.80;;;;;;;24.81;30.75;99749.34;1703074;83;21886;-80
2021/09/13 14:01:58;;;;;;;17.07;3.10;;;;;;;24.79;31.26;99754.94;1680043;85;21355;-80
2021/09/13 14:05:04;;;;;;;14.68;2.83;;;;;;;24.77;31.45;99754.39;1681080;85;21780;-80
2021/09/13 14:08:11;;;;;;;9.93;3.22;;;;;;;24.78;31.71;99760.26;1680170;85;21388;-80
2021/09/13 14:11:16;;;;;;;14.45;3.02;;;;;;;24.78;31.37;99752.70;1681295;85;21333;-79
2021/09/13 14:14:25;;;;;;;13.80;3.22;;;;;;;24.76;31.55;99760.55;1681459;85;21348;-80
2021/09/13 14:17:33;;;;;;;17.15;3.90;;;;;;;24.74;31.38;99759.98;1680118;85;21238;-79
2021/09/13 14:20:41;;;;;;;12.15;2.83;;;;;;;24.69;31.42;99751.60;1681576;85;21350;-80
2021/09/13 14:23:49;;;;;;;12.30;3.12;;;;;;;24.64;31.59;99749.66;1682746;84;21737;-80
2021/09/13 14:26:55;;;;;;;19.62;3.33;;;;;;;24.60;32.05;99748.54;1714655;83;21874;-80
2021/09/13 14:30:00;;;;;;;18.67;3.67;;;;;;;24.57;32.17;99751.92;1713354;83;21212;-80
2021/09/13 14:33:06;;;;;;;9.88;2.77;;;;;;;24.54;32.26;99744.66;1713376;83;21312;-80